Time;durP1;ratioP1;P1;durP2;ratioP2;P2;SDS_P1;SDS_P2;PMS_P1;PMS_P2;Temp;Humidity;BMP_temperature;BMP_pressure;BME280_temperature;BME280_humidity;BME280_pressure;Samples;Min_cycle;Max_cycle;Signal;HPM_P1;HPM_P2
2021/12/27 00:02:03;;;;;;;;;;;;;;;1.85;50.42;94230.41;5058724;28;19989;-87
2021/12/27 00:04:28;;;;;;;;;;;;;;;1.74;49.41;94230.69;5051173;28;19975;-87
2021/12/27 00:06:54;;;;;;;;;;;;;;;1.79;50.55;94238.06;5058019;28;20570;-89
2021/12/27 00:09:19;;;;;;;;;;;;;;;1.84;49.88;94230.56;5054188;28;19980;-87
2021/12/27 00:11:44;;;;;;;;;;;;;;;1.88;50.22;94221.41;5058992;28;20442;-87
2021/12/27 00:14:10;;;;;;;;;;;;;;;1.92;50.02;94227.97;5058202;28;19992;-88
2021/12/27 00:16:35;;;;;;;;;;;;;;;1.97;49.77;94230.09;5074248;28;19972;-88
2021/12/27 00:19:00;;;;;;;;;;;;;;;2.10;49.93;94222.63;5058427;28;20001;-88
2021/12/27 00:21:25;;;;;;;;;;;;;;;2.13;49.97;94227.56;5056919;28;19977;-87
2021/12/27 00:23:50;;;;;;;;;;;;;;;1.95;49.75;94226.81;5056336;28;19993;-88
2021/12/27 00:26:16;;;;;;;;;;;;;;;2.10;49.86;94220.00;5048377;28;20648;-88
2021/12/27 00:28:41;;;;;;;;;;;;;;;2.04;49.74;94223.25;5051935;28;20798;-88
2021/12/27 00:31:06;;;;;;;;;;;;;;;2.17;49.70;94214.13;5071840;28;19989;-88
2021/12/27 00:33:31;;;;;;;;;;;;;;;2.22;49.78;94206.56;5055293;28;19977;-87
2021/12/27 00:35:57;;;;;;;;;;;;;;;2.25;49.87;94214.94;5055253;28;19989;-88
2021/12/27 00:38:22;;;;;;;;;;;;;;;2.27;49.01;94212.97;5056834;28;20700;-88
2021/12/27 00:40:47;;;;;;;;;;;;;;;2.25;49.50;94207.06;5047364;28;19972;-87
2021/12/27 00:43:13;;;;;;;;;;;;;;;2.32;49.16;94206.44;5058191;28;19993;-87
2021/12/27 00:45:38;;;;;;;;;;;;;;;2.34;48.99;94204.44;5058034;28;19973;-88
2021/12/27 00:48:03;;;;;;;;;;;;;;;2.37;48.94;94206.75;5051024;28;20575;-87
2021/12/27 00:50:29;;;;;;;;;;;;;;;2.41;48.99;94202.00;5058769;28;19995;-88
2021/12/27 00:52:54;;;;;;;;;;;;;;;2.36;49.10;94203.31;5054477;28;19991;-88
2021/12/27 00:55:20;;;;;;;;;;;;;;;2.44;49.12;94196.41;5058521;28;20536;-86
2021/12/27 00:57:46;;;;;;;;;;;;;;;2.45;49.17;94205.97;5051679;28;20000;-88
2021/12/27 01:00:12;;;;;;;;;;;;;;;2.50;48.53;94206.28;5059763;28;19995;-88
2021/12/27 01:02:38;;;;;;;;;;;;;;;2.49;49.32;94207.28;5058055;28;19989;-87
2021/12/27 01:05:03;;;;;;;;;;;;;;;2.45;48.77;94200.72;5059998;28;19975;-88
2021/12/27 01:07:28;;;;;;;;;;;;;;;2.49;48.62;94202.03;5057749;28;20004;-87
2021/12/27 01:12:36;;;;;;;;;;;;;;;2.54;49.04;94199.72;5060202;28;19999;-88
2021/12/27 01:17:36;;;;;;;;;;;;;;;2.52;48.47;94206.97;5053162;28;20015;-89
2021/12/27 01:20:02;;;;;;;;;;;;;;;2.60;49.16;94206.13;5059458;28;19985;-88
2021/12/27 01:22:27;;;;;;;;;;;;;;;2.66;47.81;94208.13;5048082;28;20381;-89
2021/12/27 01:24:52;;;;;;;;;;;;;;;2.69;48.70;94209.59;5055831;28;20019;-88
2021/12/27 01:27:18;;;;;;;;;;;;;;;2.72;48.66;94210.06;5059616;28;20349;-88
2021/12/27 01:29:43;;;;;;;;;;;;;;;2.75;48.22;94211.56;5056755;28;19977;-89
2021/12/27 01:32:08;;;;;;;;;;;;;;;2.77;47.85;94214.84;5038899;28;20023;-88
2021/12/27 01:34:33;;;;;;;;;;;;;;;2.78;47.92;94205.97;5055618;28;19985;-88
2021/12/27 01:36:59;;;;;;;;;;;;;;;2.78;48.25;94216.50;5057150;28;19969;-88
2021/12/27 01:39:24;;;;;;;;;;;;;;;2.81;47.98;94216.16;5061670;28;19993;-88
2021/12/27 01:41:50;;;;;;;;;;;;;;;2.82;48.01;94212.53;5050782;28;20753;-87
2021/12/27 01:44:15;;;;;;;;;;;;;;;2.78;48.83;94203.34;5030409;28;19988;-87
2021/12/27 01:46:40;;;;;;;;;;;;;;;2.84;47.94;94207.97;5051463;28;20387;-87
2021/12/27 01:49:07;;;;;;;;;;;;;;;2.77;48.13;94199.09;5053640;28;20522;-88
2021/12/27 01:51:33;;;;;;;;;;;;;;;2.87;48.27;94201.53;5060540;28;19991;-86
2021/12/27 01:53:58;;;;;;;;;;;;;;;2.85;47.36;94204.34;5046940;28;20600;-87
2021/12/27 01:56:24;;;;;;;;;;;;;;;2.88;47.92;94204.00;5049514;28;19985;-87
2021/12/27 01:58:49;;;;;;;;;;;;;;;2.90;47.42;94204.66;5028899;28;20694;-87
2021/12/27 02:01:15;;;;;;;;;;;;;;;2.88;47.99;94195.28;5045978;28;20059;-87
2021/12/27 02:03:41;;;;;;;;;;;;;;;2.90;47.97;94193.34;5055170;28;20178;-87
2021/12/27 02:06:06;;;;;;;;;;;;;;;2.94;47.29;94189.38;5054340;28;19996;-87
2021/12/27 02:08:31;;;;;;;;;;;;;;;2.88;48.06;94182.97;5048596;28;20676;-86
2021/12/27 02:10:57;;;;;;;;;;;;;;;2.83;48.36;94181.84;5047648;28;19981;-87
2021/12/27 02:13:23;;;;;;;;;;;;;;;2.86;48.57;94181.50;5079372;28;20471;-87
2021/12/27 02:15:48;;;;;;;;;;;;;;;2.80;47.82;94175.09;5059246;28;20555;-87
2021/12/27 02:18:14;;;;;;;;;;;;;;;2.84;47.78;94179.03;5059970;28;20000;-88
2021/12/27 02:20:39;;;;;;;;;;;;;;;2.83;48.21;94173.94;5062941;28;20461;-87
2021/12/27 02:23:08;;;;;;;;;;;;;;;2.86;47.87;94184.94;5074158;28;19989;-87
2021/12/27 02:25:33;;;;;;;;;;;;;;;2.88;47.52;94184.78;5056537;28;20328;-88
2021/12/27 02:27:59;;;;;;;;;;;;;;;2.87;47.38;94177.88;5047001;28;20004;-87
2021/12/27 02:30:24;;;;;;;;;;;;;;;2.90;47.79;94180.19;5065391;28;19985;-87
2021/12/27 02:32:52;;;;;;;;;;;;;;;2.82;47.91;94178.38;5064043;28;19977;-87
2021/12/27 02:35:19;;;;;;;;;;;;;;;2.83;47.90;94182.66;5062908;28;19996;-87
2021/12/27 02:37:44;;;;;;;;;;;;;;;2.89;48.41;94176.72;5065422;28;19976;-87
2021/12/27 02:40:09;;;;;;;;;;;;;;;2.82;47.95;94177.56;5080371;28;20614;-87
2021/12/27 02:42:35;;;;;;;;;;;;;;;2.85;48.47;94175.41;5064511;28;19993;-87
2021/12/27 02:45:00;;;;;;;;;;;;;;;2.84;47.89;94181.66;5063523;28;20038;-87
2021/12/27 02:47:25;;;;;;;;;;;;;;;2.88;47.91;94172.47;5045308;28;20490;-87
2021/12/27 02:49:50;;;;;;;;;;;;;;;2.92;48.14;94175.56;5063014;28;19984;-88
2021/12/27 02:52:16;;;;;;;;;;;;;;;2.88;48.24;94169.84;5063027;28;20416;-87
2021/12/27 02:54:41;;;;;;;;;;;;;;;2.96;47.58;94168.19;5063430;28;20469;-87
2021/12/27 02:57:07;;;;;;;;;;;;;;;2.94;48.24;94168.34;5059872;28;20007;-88
2021/12/27 02:59:32;;;;;;;;;;;;;;;2.95;47.62;94169.16;5062891;28;20000;-87
2021/12/27 03:01:58;;;;;;;;;;;;;;;2.99;47.42;94167.88;5064501;28;19973;-87
2021/12/27 03:04:23;;;;;;;;;;;;;;;2.99;48.36;94162.59;5080471;28;19969;-87
2021/12/27 03:06:48;;;;;;;;;;;;;;;2.97;48.19;94161.94;5064472;28;20007;-87
2021/12/27 03:09:13;;;;;;;;;;;;;;;3.03;47.29;94169.19;5064398;28;19977;-88
2021/12/27 03:11:39;;;;;;;;;;;;;;;3.04;47.62;94162.91;5064296;28;20460;-87
2021/12/27 03:14:04;;;;;;;;;;;;;;;3.02;47.34;94164.88;5078814;28;19992;-87
2021/12/27 03:16:31;;;;;;;;;;;;;;;3.03;47.35;94169.19;5058473;28;19973;-87
2021/12/27 03:18:56;;;;;;;;;;;;;;;3.03;47.88;94163.91;5064137;28;20465;-86
2021/12/27 03:21:21;;;;;;;;;;;;;;;3.06;47.83;94163.56;5062805;28;19976;-88
2021/12/27 03:23:47;;;;;;;;;;;;;;;3.07;47.51;94161.75;5063408;28;19989;-87
2021/12/27 03:26:12;;;;;;;;;;;;;;;3.03;48.01;94163.91;5062436;28;20529;-87
2021/12/27 03:28:38;;;;;;;;;;;;;;;3.05;48.23;94159.28;5062504;28;19980;-87
2021/12/27 03:31:03;;;;;;;;;;;;;;;3.03;48.01;94161.28;5062483;28;20058;-87
2021/12/27 03:33:29;;;;;;;;;;;;;;;3.06;48.23;94163.56;5079408;28;19994;-86
2021/12/27 03:38:25;;;;;;;;;;;;;;;3.07;48.11;94161.75;5078740;28;20000;-87
2021/12/27 03:40:50;;;;;;;;;;;;;;;3.01;47.59;94158.00;5079979;28;19969;-86
2021/12/27 03:43:16;;;;;;;;;;;;;;;3.00;47.63;94156.34;5078321;28;19995;-87
2021/12/27 03:45:41;;;;;;;;;;;;;;;2.99;48.32;94152.91;5062313;28;19976;-86
2021/12/27 03:48:07;;;;;;;;;;;;;;;3.03;47.69;94150.78;5061557;28;20028;-87
2021/12/27 03:50:32;;;;;;;;;;;;;;;2.98;48.50;94143.38;5062228;28;19992;-87
2021/12/27 03:52:57;;;;;;;;;;;;;;;3.01;48.45;94150.09;5063939;28;20063;-87
2021/12/27 03:55:22;;;;;;;;;;;;;;;3.04;47.74;94144.50;5061916;28;20368;-87
2021/12/27 03:57:53;;;;;;;;;;;;;;;3.03;47.40;94140.25;5044832;28;19992;-87
2021/12/27 04:02:51;;;;;;;;;;;;;;;3.05;47.81;94140.88;5063110;28;20004;-87
2021/12/27 04:05:16;;;;;;;;;;;;;;;3.06;47.82;94145.16;5062027;28;20071;-87
2021/12/27 04:07:44;;;;;;;;;;;;;;;3.09;47.43;94139.56;5062224;28;20436;-87
2021/12/27 04:10:09;;;;;;;;;;;;;;;3.10;47.43;94133.31;5060607;28;19993;-87
2021/12/27 04:12:35;;;;;;;;;;;;;;;3.07;47.26;94136.28;5063659;28;20014;-87
2021/12/27 04:15:00;;;;;;;;;;;;;;;3.04;47.27;94131.38;5078339;28;19993;-87
2021/12/27 04:17:26;;;;;;;;;;;;;;;3.09;47.99;94136.94;5062404;28;20030;-87
2021/12/27 04:19:51;;;;;;;;;;;;;;;3.10;47.49;94129.88;5061311;28;19995;-87
2021/12/27 04:22:16;;;;;;;;;;;;;;;3.09;48.29;94134.31;5063216;28;19995;-87
2021/12/27 04:24:41;;;;;;;;;;;;;;;3.08;47.19;94137.09;5078681;28;19969;-87
2021/12/27 04:27:07;;;;;;;;;;;;;;;3.10;47.21;94132.50;5070054;28;20003;-87
2021/12/27 04:29:32;;;;;;;;;;;;;;;3.12;47.31;94133.97;5061926;28;20031;-87
2021/12/27 04:31:57;;;;;;;;;;;;;;;3.09;47.95;94122.97;5062980;28;20448;-87
2021/12/27 04:34:22;;;;;;;;;;;;;;;3.07;47.82;94115.25;5062091;28;20064;-87
2021/12/27 04:36:48;;;;;;;;;;;;;;;3.11;47.15;94116.56;5062181;28;19969;-86
2021/12/27 04:39:13;;;;;;;;;;;;;;;3.11;47.63;94116.56;5062208;28;19993;-87
2021/12/27 04:41:38;;;;;;;;;;;;;;;2.93;47.19;94126.44;5061462;28;19984;-87
2021/12/27 04:44:03;;;;;;;;;;;;;;;2.81;48.32;94126.78;5063111;28;20420;-87
2021/12/27 04:46:29;;;;;;;;;;;;;;;2.92;48.44;94130.88;5077983;28;20035;-86
2021/12/27 04:48:55;;;;;;;;;;;;;;;2.96;47.96;94134.81;5061929;28;19968;-87
2021/12/27 04:51:20;;;;;;;;;;;;;;;3.02;48.13;94130.69;5060581;28;20001;-87
2021/12/27 04:53:46;;;;;;;;;;;;;;;3.08;47.50;94126.56;5063089;28;19976;-87
2021/12/27 04:56:12;;;;;;;;;;;;;;;3.09;48.19;94128.25;5061594;28;19977;-87
2021/12/27 04:58:37;;;;;;;;;;;;;;;3.14;47.81;94139.88;5061463;28;20072;-86
2021/12/27 05:01:02;;;;;;;;;;;;;;;2.98;47.53;94132.03;5060368;28;20012;-87
2021/12/27 05:03:27;;;;;;;;;;;;;;;2.94;47.74;94135.97;5061315;28;19992;-86
2021/12/27 05:05:53;;;;;;;;;;;;;;;3.01;47.31;94134.31;5060789;28;19972;-87
2021/12/27 05:08:18;;;;;;;;;;;;;;;2.90;47.97;94124.97;5063237;28;19989;-86
2021/12/27 05:10:43;;;;;;;;;;;;;;;3.03;48.39;94132.34;5065821;28;20508;-87
2021/12/27 05:13:08;;;;;;;;;;;;;;;2.94;48.00;94125.47;5066945;28;19969;-86
2021/12/27 05:15:34;;;;;;;;;;;;;;;2.96;48.19;94126.94;5064464;28;19995;-86
2021/12/27 05:17:59;;;;;;;;;;;;;;;2.98;48.23;94124.13;5066245;28;19965;-87
2021/12/27 05:20:24;;;;;;;;;;;;;;;2.88;48.26;94122.53;5081227;28;19973;-86
2021/12/27 05:22:50;;;;;;;;;;;;;;;2.98;47.91;94118.88;5065569;28;20075;-87
2021/12/27 05:25:16;;;;;;;;;;;;;;;3.01;48.24;94113.28;5048695;28;20050;-87
2021/12/27 05:27:42;;;;;;;;;;;;;;;3.00;48.60;94111.66;5075678;28;19997;-87
2021/12/27 05:30:07;;;;;;;;;;;;;;;2.99;47.71;94104.75;5064827;28;19996;-87
2021/12/27 05:32:34;;;;;;;;;;;;;;;2.99;47.78;94102.13;5065041;28;19984;-87
2021/12/27 05:34:59;;;;;;;;;;;;;;;3.01;47.75;94100.97;5063654;28;20464;-87
2021/12/27 05:37:24;;;;;;;;;;;;;;;2.97;48.27;94111.97;5065152;28;19969;-87
2021/12/27 05:39:50;;;;;;;;;;;;;;;2.99;48.40;94110.03;5064577;28;20544;-87
2021/12/27 05:42:15;;;;;;;;;;;;;;;2.99;48.77;94104.75;5047737;28;20688;-88
2021/12/27 05:44:40;;;;;;;;;;;;;;;3.03;48.67;94101.59;5057889;28;19999;-88
2021/12/27 05:47:05;;;;;;;;;;;;;;;3.06;48.51;94104.91;5063338;28;20566;-87
2021/12/27 05:49:31;;;;;;;;;;;;;;;3.08;48.63;94098.47;5064766;28;20344;-87
2021/12/27 05:51:56;;;;;;;;;;;;;;;3.12;47.55;94096.31;5064495;28;20032;-87
2021/12/27 05:54:21;;;;;;;;;;;;;;;3.15;48.15;94091.56;5065212;28;20372;-87
2021/12/27 05:56:47;;;;;;;;;;;;;;;3.16;47.49;94102.88;5066766;28;19988;-87
2021/12/27 05:59:12;;;;;;;;;;;;;;;3.21;47.93;94105.03;5080626;28;20012;-88
2021/12/27 06:01:38;;;;;;;;;;;;;;;3.22;48.24;94101.38;5064765;28;20425;-87
2021/12/27 06:04:03;;;;;;;;;;;;;;;3.25;47.57;94098.44;5065845;28;20463;-86
2021/12/27 06:06:28;;;;;;;;;;;;;;;3.24;48.15;94096.78;5064688;28;20332;-87
2021/12/27 06:08:53;;;;;;;;;;;;;;;3.22;47.35;94096.97;5064332;28;19973;-87
2021/12/27 06:11:19;;;;;;;;;;;;;;;3.19;48.20;94099.94;5066153;28;20003;-87
2021/12/27 06:13:44;;;;;;;;;;;;;;;3.24;47.73;94097.63;5062390;28;20009;-88
2021/12/27 06:16:10;;;;;;;;;;;;;;;3.24;47.55;94096.78;5064542;28;20086;-88
2021/12/27 06:18:35;;;;;;;;;;;;;;;3.24;48.34;94096.78;5049037;28;20034;-88
2021/12/27 06:21:00;;;;;;;;;;;;;;;3.19;47.63;94092.03;5065065;28;19977;-87
2021/12/27 06:23:25;;;;;;;;;;;;;;;3.22;47.44;94090.88;5064176;28;20249;-88
2021/12/27 06:25:51;;;;;;;;;;;;;;;3.10;47.73;94093.06;5065514;28;20421;-88
2021/12/27 06:28:17;;;;;;;;;;;;;;;3.17;47.51;94094.03;5063924;28;19996;-87
2021/12/27 06:30:42;;;;;;;;;;;;;;;3.24;47.78;94096.78;5063873;28;19985;-88
2021/12/27 06:33:08;;;;;;;;;;;;;;;3.22;48.18;94091.69;5080814;28;19978;-88
2021/12/27 06:35:33;;;;;;;;;;;;;;;3.19;48.17;94088.59;5047409;28;19993;-87
2021/12/27 06:37:58;;;;;;;;;;;;;;;3.20;47.94;94087.59;5045857;28;20573;-87
2021/12/27 06:40:23;;;;;;;;;;;;;;;3.17;48.44;94086.94;5064504;28;19977;-87
2021/12/27 06:42:49;;;;;;;;;;;;;;;3.21;47.87;94094.50;5064690;28;20360;-87
2021/12/27 06:45:14;;;;;;;;;;;;;;;3.17;47.97;94084.31;5043423;28;20063;-87
2021/12/27 06:47:39;;;;;;;;;;;;;;;3.13;48.22;94082.22;5063471;28;20054;-87
2021/12/27 06:50:05;;;;;;;;;;;;;;;3.11;48.18;94077.13;5050916;28;19993;-87
2021/12/27 06:52:30;;;;;;;;;;;;;;;3.18;48.47;94087.78;5065674;28;20003;-88
2021/12/27 06:54:55;;;;;;;;;;;;;;;3.20;47.94;94082.34;5062420;28;19989;-88
2021/12/27 06:57:21;;;;;;;;;;;;;;;3.20;47.64;94085.78;5063518;28;20497;-87
2021/12/27 06:59:46;;;;;;;;;;;;;;;3.16;47.83;94082.69;5046421;28;19997;-87
2021/12/27 07:02:11;;;;;;;;;;;;;;;3.19;48.28;94081.50;5063508;28;20024;-87
2021/12/27 07:04:37;;;;;;;;;;;;;;;3.24;47.69;94084.47;5080714;28;20054;-87
2021/12/27 07:07:02;;;;;;;;;;;;;;;3.24;47.46;94083.66;5046537;28;20001;-88
2021/12/27 07:09:28;;;;;;;;;;;;;;;3.22;47.83;94078.56;5064778;28;20447;-88
2021/12/27 07:11:53;;;;;;;;;;;;;;;3.24;47.96;94068.69;5051291;28;20391;-87
2021/12/27 07:14:18;;;;;;;;;;;;;;;3.25;47.43;94064.22;5063315;28;20042;-87
2021/12/27 07:16:43;;;;;;;;;;;;;;;3.30;47.50;94065.38;5058929;28;19973;-87
2021/12/27 07:19:09;;;;;;;;;;;;;;;3.35;47.84;94064.88;5041537;28;20011;-87
2021/12/27 07:21:34;;;;;;;;;;;;;;;3.30;47.18;94069.78;5063111;28;19968;-87
2021/12/27 07:23:59;;;;;;;;;;;;;;;3.32;47.85;94059.09;5064004;28;20496;-86
2021/12/27 07:26:24;;;;;;;;;;;;;;;3.33;47.15;94074.72;5079627;28;20109;-87
2021/12/27 07:28:50;;;;;;;;;;;;;;;3.38;46.94;94082.09;5064800;28;19980;-87
2021/12/27 07:31:15;;;;;;;;;;;;;;;3.38;47.46;94080.31;5052613;28;20513;-87
2021/12/27 07:33:40;;;;;;;;;;;;;;;3.37;47.49;94083.91;5066852;28;20383;-87
2021/12/27 07:36:07;;;;;;;;;;;;;;;3.43;47.04;94091.13;5045883;28;20000;-86
2021/12/27 07:38:33;;;;;;;;;;;;;;;3.46;47.98;94091.78;5062384;28;20447;-87
2021/12/27 07:40:58;;;;;;;;;;;;;;;3.42;47.84;94093.94;5046524;28;20019;-87
2021/12/27 07:43:23;;;;;;;;;;;;;;;3.52;46.99;94091.13;5061643;28;20075;-87
2021/12/27 07:45:48;;;;;;;;;;;;;;;3.50;47.03;94101.81;5063237;28;20063;-87
2021/12/27 07:48:14;;;;;;;;;;;;;;;3.55;47.03;94091.59;5061837;28;20001;-86
2021/12/27 07:50:39;;;;;;;;;;;;;;;3.57;46.89;94088.00;5063902;28;19993;-87
2021/12/27 07:53:04;;;;;;;;;;;;;;;3.49;47.40;94083.56;5062858;28;20023;-87
2021/12/27 07:55:30;;;;;;;;;;;;;;;3.46;47.20;94076.00;5063059;28;19995;-88
2021/12/27 07:57:55;;;;;;;;;;;;;;;3.46;47.97;94076.00;5061195;28;19993;-87
2021/12/27 08:00:21;;;;;;;;;;;;;;;3.48;47.34;94071.41;5045115;28;19992;-86
2021/12/27 08:02:46;;;;;;;;;;;;;;;3.49;47.34;94070.41;5062231;28;20054;-86
2021/12/27 08:05:11;;;;;;;;;;;;;;;3.60;47.72;94080.56;5054315;28;20044;-87
2021/12/27 08:07:36;;;;;;;;;;;;;;;3.61;47.32;94079.56;5064701;28;20073;-87
2021/12/27 08:10:02;;;;;;;;;;;;;;;3.66;46.94;94073.78;5059517;28;20554;-88
2021/12/27 08:12:27;;;;;;;;;;;;;;;3.69;47.64;94073.44;5072321;28;19968;-87
2021/12/27 08:14:52;;;;;;;;;;;;;;;3.76;46.60;94076.19;5059265;28;20032;-88
2021/12/27 08:17:18;;;;;;;;;;;;;;;3.74;47.42;94078.19;5056457;28;20087;-86
2021/12/27 08:19:45;;;;;;;;;;;;;;;3.79;46.93;94075.84;5057144;28;20004;-87
2021/12/27 08:22:10;;;;;;;;;;;;;;;3.87;46.14;94073.19;5057529;28;20104;-87
2021/12/27 08:24:36;;;;;;;;;;;;;;;3.92;46.42;94075.28;5073188;28;20439;-87
2021/12/27 08:27:03;;;;;;;;;;;;;;;3.97;46.30;94072.13;5039455;28;20050;-87
2021/12/27 08:29:29;;;;;;;;;;;;;;;3.99;46.21;94072.78;5057952;28;19973;-88
2021/12/27 08:31:54;;;;;;;;;;;;;;;4.03;46.52;94074.91;5056989;28;20035;-85
2021/12/27 08:34:19;;;;;;;;;;;;;;;4.04;46.29;94080.97;5057177;28;20028;-85
2021/12/27 08:36:44;;;;;;;;;;;;;;;4.09;45.68;94083.91;5058972;28;19976;-85
2021/12/27 08:39:10;;;;;;;;;;;;;;;4.09;46.26;94076.00;5057289;28;20062;-86
2021/12/27 08:41:35;;;;;;;;;;;;;;;4.14;45.78;94078.09;5059209;28;20441;-86
2021/12/27 08:44:03;;;;;;;;;;;;;;;4.12;46.46;94073.00;5061246;28;20059;-86
2021/12/27 08:46:29;;;;;;;;;;;;;;;4.17;46.41;94078.59;5061020;28;20685;-86
2021/12/27 08:48:54;;;;;;;;;;;;;;;4.21;46.14;94072.97;5060810;28;19969;-86
2021/12/27 08:51:19;;;;;;;;;;;;;;;4.22;46.12;94066.69;5061006;28;20471;-85
2021/12/27 08:53:44;;;;;;;;;;;;;;;4.19;46.36;94062.59;5077903;28;20072;-86
2021/12/27 08:56:10;;;;;;;;;;;;;;;4.18;46.39;94064.41;5052462;28;19984;-86
2021/12/27 08:58:35;;;;;;;;;;;;;;;4.25;45.68;94063.72;5057390;28;19996;-86
2021/12/27 09:01:00;;;;;;;;;;;;;;;4.30;46.07;94056.09;5066073;28;19970;-85
2021/12/27 09:03:26;;;;;;;;;;;;;;;4.31;45.38;94057.72;5060660;28;19997;-86
2021/12/27 09:05:51;;;;;;;;;;;;;;;4.29;46.26;94050.00;5060537;28;20541;-86
2021/12/27 09:08:16;;;;;;;;;;;;;;;4.23;46.04;94055.16;5062691;28;20418;-85
2021/12/27 09:10:41;;;;;;;;;;;;;;;4.43;45.79;94053.66;5061835;28;20011;-86
2021/12/27 09:13:07;;;;;;;;;;;;;;;4.47;45.45;94053.31;5060863;28;20442;-85
2021/12/27 09:15:32;;;;;;;;;;;;;;;4.48;45.94;94057.56;5076640;28;19991;-85
2021/12/27 09:17:57;;;;;;;;;;;;;;;4.49;45.38;94053.97;5076671;28;19969;-85
2021/12/27 09:20:24;;;;;;;;;;;;;;;4.61;45.26;94051.69;5061364;28;20004;-85
2021/12/27 09:22:49;;;;;;;;;;;;;;;4.65;45.19;94053.81;5042479;28;20215;-85
2021/12/27 09:25:14;;;;;;;;;;;;;;;4.60;45.50;94055.34;5050330;28;20603;-86
2021/12/27 09:27:40;;;;;;;;;;;;;;;4.65;45.47;94058.25;5059741;28;20078;-85
2021/12/27 09:30:05;;;;;;;;;;;;;;;4.54;45.05;94059.50;5044375;28;20404;-86
2021/12/27 09:32:30;;;;;;;;;;;;;;;4.82;44.86;94054.47;5059948;28;20061;-86
2021/12/27 09:34:56;;;;;;;;;;;;;;;4.90;44.90;94055.41;5043391;28;19993;-85
2021/12/27 09:37:34;;;;;;;;;;;;;;;4.93;44.14;94053.19;5067556;28;19965;-95
2021/12/27 09:40:01;;;;;;;;;;;;;;;4.95;44.43;94048.56;5072492;28;20075;-94
2021/12/27 09:42:26;;;;;;;;;;;;;;;4.86;44.54;94049.66;5075935;28;20023;-93
2021/12/27 09:44:52;;;;;;;;;;;;;;;4.83;44.80;94048.19;5067833;28;19969;-89
2021/12/27 09:47:17;;;;;;;;;;;;;;;4.88;44.82;94047.66;5048844;28;20051;-90
2021/12/27 09:49:44;;;;;;;;;;;;;;;4.92;44.24;94048.94;5057943;28;19975;-88
2021/12/27 09:52:11;;;;;;;;;;;;;;;4.92;44.30;94041.03;5095090;28;19976;-89
2021/12/27 09:54:36;;;;;;;;;;;;;;;4.91;44.90;94047.31;5071655;28;20004;-88
2021/12/27 09:57:02;;;;;;;;;;;;;;;4.91;44.67;94044.66;5061764;28;19977;-89
2021/12/27 09:59:27;;;;;;;;;;;;;;;4.96;44.54;94039.66;5059769;28;20075;-91
2021/12/27 10:01:53;;;;;;;;;;;;;;;4.93;44.90;94039.22;5073746;28;19969;-90
2021/12/27 10:04:19;;;;;;;;;;;;;;;5.00;44.83;94039.31;5031308;23;20538;-69
2021/12/27 10:06:44;;;;;;;;;;;;;;;5.04;44.98;94032.66;4988920;28;20181;-69
2021/12/27 10:09:09;;;;;;;;;;;;;;;5.10;44.18;94029.31;4982165;28;20441;-69
2021/12/27 10:11:36;;;;;;;;;;;;;;;5.08;44.40;94020.78;4981677;28;19994;-69
2021/12/27 10:14:07;;;;;;;;;;;;;;;5.09;45.72;94012.69;4982102;28;20462;-69
2021/12/27 10:16:36;;;;;;;;;;;;;;;5.20;44.35;94018.47;4981238;28;19974;-69
2021/12/27 10:19:02;;;;;;;;;;;;;;;5.24;45.11;94011.84;4981838;28;20001;-69
2021/12/27 10:21:28;;;;;;;;;;;;;;;5.30;43.70;94015.53;4996860;28;19981;-69
2021/12/27 10:24:00;;;;;;;;;;;;;;;5.34;43.62;94012.38;4981529;28;19998;-69
2021/12/27 10:26:26;;;;;;;;;;;;;;;5.24;43.82;94013.66;4995967;28;20537;-67
2021/12/27 10:29:04;;;;;;;;;;;;;;;5.32;43.89;94013.56;4984844;28;20117;-69
2021/12/27 10:31:29;;;;;;;;;;;;;;;5.44;43.59;94014.72;4987388;28;20013;-69
2021/12/27 10:33:55;;;;;;;;;;;;;;;5.50;43.48;94015.78;4981733;28;20229;-69
2021/12/27 10:36:20;;;;;;;;;;;;;;;5.50;43.48;94012.34;4984430;28;19965;-69
2021/12/27 10:38:45;;;;;;;;;;;;;;;5.55;43.59;94012.59;4981801;28;19998;-69
2021/12/27 10:41:11;;;;;;;;;;;;;;;5.70;43.30;94007.28;4996749;28;20327;-69
2021/12/27 10:43:50;;;;;;;;;;;;;;;5.70;43.20;94002.81;4981707;28;20002;-69
2021/12/27 10:46:16;;;;;;;;;;;;;;;5.76;42.84;94001.25;4980354;28;20597;-69
2021/12/27 10:48:42;;;;;;;;;;;;;;;5.83;42.80;93998.69;4981574;28;20069;-69
2021/12/27 10:51:07;;;;;;;;;;;;;;;5.67;43.64;93986.50;4995748;28;20005;-69
2021/12/27 10:54:02;;;;;;;;;;;;;;;5.73;44.27;93988.41;4979526;28;20187;-69
2021/12/27 10:56:28;;;;;;;;;;;;;;;5.80;42.83;93988.47;4970788;28;20076;-69
2021/12/27 10:58:57;;;;;;;;;;;;;;;5.93;42.55;93985.97;4980731;28;20594;-69
2021/12/27 11:01:23;;;;;;;;;;;;;;;5.90;42.69;93989.00;4984806;28;20006;-69
2021/12/27 11:03:50;;;;;;;;;;;;;;;5.88;42.95;93987.56;4992631;28;20505;-69
2021/12/27 11:06:20;;;;;;;;;;;;;;;5.92;42.64;93984.31;4989845;28;19990;-69
2021/12/27 11:08:45;;;;;;;;;;;;;;;5.90;43.07;93991.63;5007827;28;20092;-69
2021/12/27 11:11:14;;;;;;;;;;;;;;;5.95;42.54;93988.44;5004129;28;20088;-69
2021/12/27 11:13:39;;;;;;;;;;;;;;;5.98;43.02;93982.75;5004630;28;20350;-69
2021/12/27 11:16:04;;;;;;;;;;;;;;;5.94;42.63;93982.31;4986505;28;19989;-69
2021/12/27 11:18:29;;;;;;;;;;;;;;;5.99;42.32;93972.00;5004108;28;19989;-69
2021/12/27 11:20:56;;;;;;;;;;;;;;;6.03;42.87;93972.47;5004794;28;19970;-69
2021/12/27 11:23:21;;;;;;;;;;;;;;;5.91;43.02;93976.63;4986844;28;20048;-69
2021/12/27 11:25:47;;;;;;;;;;;;;;;6.02;42.61;93964.72;4987114;28;20452;-69
2021/12/27 11:28:31;;;;;;;;;;;;;;;6.02;43.13;93968.16;5004596;28;20185;-69
2021/12/27 11:30:57;;;;;;;;;;;;;;;6.07;42.79;93960.50;5004134;28;20020;-69
2021/12/27 11:33:22;;;;;;;;;;;;;;;6.09;42.36;93962.97;4986238;28;19973;-69
2021/12/27 11:35:57;;;;;;;;;;;;;;;6.30;42.17;93954.19;5003917;28;20005;-69
2021/12/27 11:38:37;;;;;;;;;;;;;;;6.36;43.79;93950.75;5004292;28;20195;-69
2021/12/27 11:41:03;;;;;;;;;;;;;;;6.40;42.15;93953.00;4993072;28;19965;-69
2021/12/27 11:43:48;;;;;;;;;;;;;;;6.52;41.52;93961.28;5003867;28;20037;-68
2021/12/27 11:46:13;;;;;;;;;;;;;;;6.49;41.58;93959.81;4985911;28;20064;-69
2021/12/27 11:48:45;;;;;;;;;;;;;;;6.48;41.29;93953.72;5003681;28;20084;-70
2021/12/27 11:51:11;;;;;;;;;;;;;;;6.44;41.47;93952.44;4984426;28;20528;-69
2021/12/27 11:53:37;;;;;;;;;;;;;;;6.47;41.48;93965.25;4985326;28;20205;-69
2021/12/27 11:56:03;;;;;;;;;;;;;;;6.39;42.23;93957.47;5014711;28;20370;-69
2021/12/27 11:58:35;;;;;;;;;;;;;;;6.34;43.08;93959.88;4999801;28;20131;-69
2021/12/27 12:01:00;;;;;;;;;;;;;;;6.73;45.39;93963.00;5005352;28;19980;-69
2021/12/27 12:03:39;;;;;;;;;;;;;;;6.86;45.63;93956.97;5002785;28;19998;-69
2021/12/27 12:06:04;;;;;;;;;;;;;;;6.35;47.10;93956.22;4991388;28;19974;-70
2021/12/27 12:08:35;;;;;;;;;;;;;;;6.69;46.46;93951.19;5003637;28;20240;-70
2021/12/27 12:11:02;;;;;;;;;;;;;;;6.78;46.59;93952.69;5017918;28;20508;-69
2021/12/27 12:13:27;;;;;;;;;;;;;;;6.83;46.23;93952.91;5004173;28;19970;-69
2021/12/27 12:15:55;;;;;;;;;;;;;;;6.63;46.98;93940.38;5003637;28;20464;-69
2021/12/27 12:18:21;;;;;;;;;;;;;;;6.69;46.72;93945.91;5004130;28;20151;-70
2021/12/27 12:20:46;;;;;;;;;;;;;;;6.58;47.17;93941.97;4980477;28;20375;-69
2021/12/27 12:23:11;;;;;;;;;;;;;;;6.79;46.54;93934.97;5011910;28;19994;-69
2021/12/27 12:25:37;;;;;;;;;;;;;;;6.80;46.50;93936.63;5006332;28;20072;-69
2021/12/27 12:28:05;;;;;;;;;;;;;;;6.40;45.64;93943.28;4986156;28;20293;-70
2021/12/27 12:30:32;;;;;;;;;;;;;;;6.72;46.77;93929.63;5002959;28;19985;-70
2021/12/27 12:33:05;;;;;;;;;;;;;;;6.81;46.96;93922.38;5003719;28;20431;-70
2021/12/27 12:35:34;;;;;;;;;;;;;;;6.88;46.42;93910.00;5002162;28;20016;-70
2021/12/27 12:38:17;;;;;;;;;;;;;;;6.94;46.70;93901.25;4991198;28;19974;-69
2021/12/27 12:40:56;;;;;;;;;;;;;;;6.95;46.51;93907.38;5018119;28;19962;-70
2021/12/27 12:43:31;;;;;;;;;;;;;;;6.71;45.53;93912.97;5011606;28;19996;-69
2021/12/27 12:45:56;;;;;;;;;;;;;;;6.23;47.89;93914.47;5003149;28;20369;-70
2021/12/27 12:48:28;;;;;;;;;;;;;;;6.40;47.77;93911.53;5002625;28;19994;-70
2021/12/27 12:50:53;;;;;;;;;;;;;;;6.64;47.39;93906.81;5002247;28;19993;-70
2021/12/27 12:53:19;;;;;;;;;;;;;;;6.83;47.23;93909.78;5003451;28;19981;-70
2021/12/27 12:55:44;;;;;;;;;;;;;;;6.64;47.38;93906.81;5011681;28;20231;-70
2021/12/27 12:58:09;;;;;;;;;;;;;;;6.49;46.01;93906.94;5006918;28;20005;-69
2021/12/27 13:00:36;;;;;;;;;;;;;;;6.46;46.31;93909.94;5003171;28;19985;-70
2021/12/27 13:03:11;;;;;;;;;;;;;;;6.75;47.07;93903.63;5002776;28;20548;-70